Time;durP1;ratioP1;P1;durP2;ratioP2;P2;SDS_P1;SDS_P2;PMS_P1;PMS_P2;Temp;Humidity;BMP_temperature;BMP_pressure;BME280_temperature;BME280_humidity;BME280_pressure;Samples;Min_cycle;Max_cycle;Signal;HPM_P1;HPM_P2
2022/12/31 00:00:04;;;;;;;62.35;30.58;;;0.00;99.90;;;;;;5014391;28;20018;-76
2022/12/31 00:02:29;;;;;;;75.50;39.08;;;0.10;99.90;;;;;;5016125;28;20022;-76
2022/12/31 00:04:55;;;;;;;63.33;37.10;;;-0.10;99.90;;;;;;5015846;28;20436;-76
2022/12/31 00:07:20;;;;;;;62.63;35.47;;;-0.20;99.90;;;;;;5015557;28;20527;-77
2022/12/31 00:09:46;;;;;;;64.38;33.10;;;-0.40;99.90;;;;;;5015219;28;20034;-78
2022/12/31 00:12:11;;;;;;;53.05;30.10;;;-0.40;99.90;;;;;;5014769;28;20038;-76
2022/12/31 00:14:37;;;;;;;55.67;26.83;;;-0.40;99.90;;;;;;5014107;28;20021;-76
2022/12/31 00:17:02;;;;;;;57.72;26.73;;;-0.40;99.90;;;;;;5014540;28;20045;-77
2022/12/31 00:19:28;;;;;;;49.20;27.25;;;-0.40;99.90;;;;;;5014321;28;20105;-78
2022/12/31 00:21:53;;;;;;;52.40;27.48;;;-0.40;99.90;;;;;;5014420;28;20025;-76
2022/12/31 00:24:19;;;;;;;47.67;25.55;;;-0.40;99.90;;;;;;5015648;28;20033;-78
2022/12/31 00:26:45;;;;;;;47.88;26.92;;;-0.40;99.90;;;;;;5015269;28;20050;-76
2022/12/31 00:29:10;;;;;;;43.67;25.38;;;-0.40;99.90;;;;;;5014272;28;20026;-77
2022/12/31 00:31:37;;;;;;;47.08;25.98;;;-0.40;99.90;;;;;;5015107;28;20061;-76
2022/12/31 00:34:03;;;;;;;48.55;25.67;;;-0.30;99.90;;;;;;5015435;28;20034;-76
2022/12/31 00:36:32;;;;;;;49.25;25.52;;;-0.10;99.90;;;;;;5015185;28;20034;-76
2022/12/31 00:38:59;;;;;;;42.45;25.45;;;-0.10;99.90;;;;;;5015283;28;20033;-76
2022/12/31 00:41:25;;;;;;;66.93;33.53;;;-0.10;99.90;;;;;;5015083;28;20021;-77
2022/12/31 00:43:51;;;;;;;55.00;30.77;;;-0.20;99.90;;;;;;5014018;28;20025;-76
2022/12/31 00:46:18;;;;;;;63.58;32.50;;;-0.20;99.90;;;;;;5013586;28;20068;-76
2022/12/31 00:48:44;;;;;;;74.38;34.78;;;-0.20;99.90;;;;;;5014024;28;20024;-78
2022/12/31 00:51:13;;;;;;;68.72;35.25;;;-0.20;99.90;;;;;;5014534;28;20057;-75
2022/12/31 00:53:39;;;;;;;74.55;35.58;;;-0.30;99.90;;;;;;5015124;28;20446;-77
2022/12/31 00:56:10;;;;;;;65.93;35.25;;;-0.40;99.90;;;;;;5013379;28;20018;-77
2022/12/31 00:58:35;;;;;;;51.15;27.33;;;-0.40;99.90;;;;;;5015132;28;20018;-75
2022/12/31 01:01:32;;;;;;;55.10;28.02;;;-0.40;99.90;;;;;;5014054;28;20113;-78
2022/12/31 01:04:00;;;;;;;41.38;24.63;;;-0.40;99.90;;;;;;5014664;28;20113;-78
2022/12/31 01:06:26;;;;;;;43.38;24.20;;;-0.30;99.90;;;;;;5014378;28;20472;-77
2022/12/31 01:08:54;;;;;;;48.22;26.77;;;-0.20;99.90;;;;;;5014837;28;20084;-78
2022/12/31 01:11:23;;;;;;;56.90;31.15;;;-0.20;99.90;;;;;;5013064;28;20088;-76
2022/12/31 01:13:53;;;;;;;43.08;24.48;;;-0.20;99.90;;;;;;5014615;28;20169;-76
2022/12/31 01:16:21;;;;;;;54.72;29.15;;;-0.20;99.90;;;;;;5014199;28;20021;-78
2022/12/31 01:18:48;;;;;;;63.28;33.00;;;-0.20;99.90;;;;;;5014550;28;20033;-78
2022/12/31 01:21:14;;;;;;;88.18;40.95;;;-0.20;99.90;;;;;;5014187;28;20056;-76
2022/12/31 01:23:40;;;;;;;89.93;44.13;;;-0.20;99.90;;;;;;5014615;28;20030;-76
2022/12/31 01:26:08;;;;;;;127.38;53.95;;;-0.20;99.90;;;;;;5014018;28;20086;-76
2022/12/31 01:28:34;;;;;;;93.10;43.47;;;-0.30;99.90;;;;;;5013180;28;20018;-77
2022/12/31 01:31:11;;;;;;;69.78;33.60;;;-0.30;99.90;;;;;;5012509;28;20018;-76
2022/12/31 01:33:37;;;;;;;47.58;25.42;;;-0.30;99.90;;;;;;5013048;28;20109;-78
2022/12/31 01:36:12;;;;;;;47.78;27.20;;;-0.20;99.90;;;;;;5013937;28;20029;-77
2022/12/31 01:38:38;;;;;;;60.63;32.13;;;-0.30;99.90;;;;;;5014457;28;20029;-76
2022/12/31 01:41:04;;;;;;;92.45;42.58;;;-0.30;99.90;;;;;;5013832;28;20026;-78
2022/12/31 01:43:57;;;;;;;104.20;48.65;;;-0.30;99.90;;;;;;5014136;28;20459;-78
2022/12/31 01:46:42;;;;;;;107.25;51.00;;;-0.40;99.90;;;;;;5013840;28;20384;-77
2022/12/31 01:49:23;;;;;;;113.25;49.67;;;-0.50;99.90;;;;;;5014257;28;20482;-78
2022/12/31 01:52:01;;;;;;;82.60;39.70;;;-0.40;99.90;;;;;;5013638;28;20058;-75
2022/12/31 01:54:28;;;;;;;91.65;44.25;;;-0.40;99.90;;;;;;5014142;28;20029;-78
2022/12/31 01:56:55;;;;;;;80.38;38.55;;;-0.50;99.90;;;;;;5013655;28;20026;-78
2022/12/31 01:59:24;;;;;;;90.72;40.88;;;-0.50;99.90;;;;;;5012727;28;20022;-78
2022/12/31 02:01:53;;;;;;;78.55;39.40;;;-0.50;99.90;;;;;;5013459;28;20419;-78
2022/12/31 02:04:21;;;;;;;77.13;38.08;;;-0.50;99.90;;;;;;5013886;28;20033;-75
2022/12/31 02:06:57;;;;;;;81.43;36.60;;;-0.40;99.90;;;;;;5012138;28;20503;-78
2022/12/31 02:09:24;;;;;;;60.30;35.10;;;-0.40;99.90;;;;;;5012518;28;20025;-78
2022/12/31 02:11:49;;;;;;;55.60;29.25;;;-0.30;99.90;;;;;;5012814;28;20133;-76
2022/12/31 02:14:43;;;;;;;50.38;28.67;;;-0.30;99.90;;;;;;5012165;28;20534;-77
2022/12/31 02:17:42;;;;;;;55.83;29.80;;;-0.10;99.90;;;;;;5012051;28;20361;-75
2022/12/31 02:20:26;;;;;;;58.10;29.50;;;-0.10;99.90;;;;;;5013439;28;20391;-75
2022/12/31 02:23:17;;;;;;;58.10;30.58;;;0.00;99.90;;;;;;5012379;28;20407;-78
2022/12/31 02:26:19;;;;;;;63.33;31.40;;;0.00;99.90;;;;;;5013183;28;20475;-76
2022/12/31 02:29:28;;;;;;;61.72;30.70;;;0.00;99.90;;;;;;5012436;28;20502;-78
2022/12/31 02:32:22;;;;;;;54.88;28.70;;;0.00;99.90;;;;;;5013292;28;20033;-78
2022/12/31 02:34:56;;;;;;;54.17;30.20;;;0.00;99.90;;;;;;5013292;28;20018;-78
2022/12/31 02:37:25;;;;;;;56.58;29.73;;;0.10;99.90;;;;;;5012123;28;20037;-76
2022/12/31 02:39:51;;;;;;;74.47;38.83;;;0.10;99.90;;;;;;5013011;28;20587;-76
2022/12/31 02:42:17;;;;;;;58.25;30.38;;;0.10;99.90;;;;;;5013387;28;20026;-76
2022/12/31 02:44:43;;;;;;;112.05;49.60;;;0.10;99.90;;;;;;5013296;28;20484;-75
2022/12/31 02:47:08;;;;;;;76.82;38.65;;;0.20;99.90;;;;;;5011663;28;20099;-76
2022/12/31 02:50:02;;;;;;;61.50;32.22;;;0.20;99.90;;;;;;5012879;28;20487;-76
2022/12/31 02:52:58;;;;;;;65.00;33.63;;;0.20;99.90;;;;;;5011795;28;20073;-76
2022/12/31 02:55:29;;;;;;;64.53;35.00;;;0.30;99.90;;;;;;5011656;28;20041;-78
2022/12/31 02:58:13;;;;;;;56.47;31.98;;;0.40;99.90;;;;;;5011962;28;20033;-78
2022/12/31 03:03:38;;;;;;;56.95;32.90;;;0.50;99.90;;;;;;5013264;28;20139;-75
2022/12/31 03:06:06;;;;;;;56.00;30.85;;;0.60;99.90;;;;;;5011591;28;20053;-76
2022/12/31 03:09:11;;;;;;;54.60;30.10;;;0.60;99.90;;;;;;5011910;28;20056;-76
2022/12/31 03:12:45;;;;;;;59.58;32.35;;;0.70;99.90;;;;;;5013037;28;20481;-78
2022/12/31 03:14:03;;;;;;;55.20;33.28;;;0.70;99.90;;;;;;5013337;28;20458;-75
2022/12/31 03:16:29;;;;;;;58.58;34.40;;;0.70;99.90;;;;;;5012688;28;20058;-77
2022/12/31 03:27:06;;;;;;;59.75;33.55;;;1.00;99.90;;;;;;4996553;28;20057;-77
2022/12/31 03:29:32;;;;;;;63.40;36.22;;;1.00;99.90;;;;;;5011948;28;20476;-78
2022/12/31 03:31:57;;;;;;;66.22;40.13;;;1.10;99.90;;;;;;4997000;28;20077;-78
2022/12/31 03:34:23;;;;;;;64.38;37.47;;;1.00;99.90;;;;;;4996661;28;20022;-78
2022/12/31 03:36:48;;;;;;;61.03;34.28;;;1.10;99.90;;;;;;4996846;28;20584;-75
2022/12/31 03:39:14;;;;;;;65.78;38.65;;;1.10;99.90;;;;;;5011997;28;20046;-76
2022/12/31 03:41:40;;;;;;;61.28;38.25;;;1.10;99.90;;;;;;4996839;28;20457;-78
2022/12/31 03:44:05;;;;;;;61.17;35.47;;;1.10;99.90;;;;;;4996795;28;20079;-76
2022/12/31 03:46:31;;;;;;;66.50;35.17;;;1.20;99.90;;;;;;4995510;28;20034;-78
2022/12/31 03:48:57;;;;;;;57.70;34.22;;;1.10;99.90;;;;;;4995381;28;20029;-76
2022/12/31 03:51:23;;;;;;;56.13;33.38;;;1.10;99.90;;;;;;4995224;28;20046;-78
2022/12/31 03:53:48;;;;;;;59.45;34.40;;;1.10;99.90;;;;;;4995346;28;20088;-76
2022/12/31 03:56:14;;;;;;;60.55;33.90;;;1.10;99.90;;;;;;5012149;28;20022;-76
2022/12/31 03:58:39;;;;;;;64.63;36.20;;;1.10;99.90;;;;;;5015904;28;20058;-75
2022/12/31 04:01:05;;;;;;;62.15;33.85;;;1.20;99.90;;;;;;5016162;28;20022;-73
2022/12/31 04:03:30;;;;;;;67.00;34.50;;;1.20;99.90;;;;;;5016054;28;20486;-74
2022/12/31 04:05:56;;;;;;;61.20;34.08;;;1.20;99.90;;;;;;5015946;28;20048;-73
2022/12/31 04:08:22;;;;;;;64.55;36.42;;;1.20;99.90;;;;;;5016052;28;20079;-76
2022/12/31 04:10:48;;;;;;;64.70;37.40;;;1.10;99.90;;;;;;5016316;28;20018;-75
2022/12/31 04:13:13;;;;;;;66.88;37.13;;;1.20;99.90;;;;;;5015734;28;20041;-76
2022/12/31 04:15:39;;;;;;;71.85;37.92;;;1.10;99.90;;;;;;5016021;28;20112;-75
2022/12/31 04:18:05;;;;;;;62.58;37.78;;;1.10;99.90;;;;;;5015752;28;20017;-73
2022/12/31 04:20:30;;;;;;;65.25;38.00;;;1.10;99.90;;;;;;5015844;28;20145;-73
2022/12/31 04:22:56;;;;;;;64.00;36.13;;;1.10;99.90;;;;;;5014388;28;20385;-75
2022/12/31 04:25:21;;;;;;;58.72;33.97;;;1.10;99.90;;;;;;5014247;28;20041;-73
2022/12/31 04:27:47;;;;;;;61.15;35.33;;;1.10;99.90;;;;;;5015650;28;20109;-74
2022/12/31 04:30:13;;;;;;;65.53;36.70;;;1.20;99.90;;;;;;5015725;28;20022;-75
2022/12/31 04:32:39;;;;;;;64.53;38.40;;;1.30;99.90;;;;;;5014121;28;20089;-73
2022/12/31 04:35:05;;;;;;;73.75;40.22;;;1.30;99.90;;;;;;5013352;28;20018;-73
2022/12/31 04:37:31;;;;;;;72.47;41.50;;;1.40;99.90;;;;;;5015181;28;20021;-73
2022/12/31 04:39:57;;;;;;;75.53;41.08;;;1.40;99.90;;;;;;5015444;28;20022;-73
2022/12/31 04:42:22;;;;;;;69.47;40.42;;;1.50;99.90;;;;;;5015266;28;20026;-76
2022/12/31 04:44:48;;;;;;;69.75;41.90;;;1.50;99.90;;;;;;5015245;28;20049;-72
2022/12/31 04:47:13;;;;;;;79.50;45.75;;;1.50;99.90;;;;;;5015343;28;20057;-76
2022/12/31 04:49:39;;;;;;;75.78;41.75;;;1.60;99.90;;;;;;5015121;28;20077;-73
2022/12/31 04:52:05;;;;;;;71.32;41.53;;;1.70;99.90;;;;;;5013856;28;20053;-72
2022/12/31 04:54:30;;;;;;;73.72;41.00;;;1.70;99.90;;;;;;5013468;28;20022;-73
2022/12/31 04:56:56;;;;;;;73.10;42.17;;;1.80;99.90;;;;;;5015101;28;20115;-75
2022/12/31 04:59:21;;;;;;;79.22;42.92;;;1.90;99.90;;;;;;5013667;28;20018;-76
2022/12/31 05:01:47;;;;;;;79.90;44.33;;;2.00;99.90;;;;;;5014937;28;20034;-75
2022/12/31 05:04:12;;;;;;;80.53;44.30;;;2.10;99.90;;;;;;5014807;28;20488;-76
2022/12/31 05:06:38;;;;;;;76.53;41.30;;;2.10;99.90;;;;;;5013452;28;20026;-73
2022/12/31 05:09:03;;;;;;;77.25;43.00;;;2.10;99.90;;;;;;5014892;28;20014;-76
2022/12/31 05:11:29;;;;;;;71.07;42.25;;;2.10;99.90;;;;;;5014845;28;20583;-73
2022/12/31 05:13:55;;;;;;;68.45;37.20;;;2.10;99.90;;;;;;5013970;28;20472;-76
2022/12/31 05:16:20;;;;;;;64.13;36.63;;;2.10;99.90;;;;;;5014604;28;20077;-73
2022/12/31 05:18:46;;;;;;;65.20;37.83;;;2.00;99.90;;;;;;5013426;28;20100;-75
2022/12/31 05:21:16;;;;;;;67.07;38.30;;;2.00;99.90;;;;;;5014522;28;20033;-73
2022/12/31 05:23:42;;;;;;;64.47;37.85;;;2.00;99.90;;;;;;5014499;28;20022;-72
2022/12/31 05:26:07;;;;;;;63.00;36.63;;;2.00;99.90;;;;;;5013235;28;20080;-72
2022/12/31 05:28:33;;;;;;;70.97;39.38;;;2.00;99.90;;;;;;5013107;28;20096;-73
2022/12/31 05:30:59;;;;;;;63.58;36.05;;;2.00;99.90;;;;;;5013096;28;20029;-73
2022/12/31 05:33:24;;;;;;;57.60;33.90;;;2.00;99.90;;;;;;5012949;28;20507;-75
2022/12/31 05:35:50;;;;;;;63.35;35.75;;;2.10;99.90;;;;;;5014387;28;20056;-75
2022/12/31 05:38:16;;;;;;;70.70;38.70;;;2.10;99.90;;;;;;5014505;28;20021;-74
2022/12/31 05:40:41;;;;;;;66.43;36.03;;;2.10;99.90;;;;;;5013136;28;20033;-75
2022/12/31 05:43:07;;;;;;;65.28;35.75;;;2.10;99.90;;;;;;5014294;28;20030;-74
2022/12/31 05:45:33;;;;;;;71.68;35.30;;;2.10;99.90;;;;;;5012920;28;20026;-73
2022/12/31 05:47:58;;;;;;;60.97;34.85;;;2.10;99.90;;;;;;5013989;28;20403;-73
2022/12/31 05:50:24;;;;;;;56.78;33.28;;;2.10;99.90;;;;;;5013568;28;20084;-76
2022/12/31 05:52:49;;;;;;;59.05;34.20;;;2.10;99.90;;;;;;5014046;28;20034;-73
2022/12/31 05:55:15;;;;;;;60.17;35.63;;;2.10;99.90;;;;;;5013694;28;20022;-75
2022/12/31 05:57:41;;;;;;;63.88;35.85;;;2.10;99.90;;;;;;5014049;28;20026;-74
2022/12/31 06:00:08;;;;;;;69.07;37.95;;;2.20;99.90;;;;;;5013905;28;20029;-75
2022/12/31 06:02:34;;;;;;;67.00;34.70;;;2.20;99.90;;;;;;5013961;28;20437;-72
2022/12/31 06:04:59;;;;;;;72.63;37.80;;;2.20;99.90;;;;;;5013675;28;20050;-76
2022/12/31 06:07:25;;;;;;;72.40;39.67;;;2.20;99.90;;;;;;5012576;28;20022;-74
2022/12/31 06:09:51;;;;;;;72.32;38.58;;;2.20;99.90;;;;;;5013756;28;20030;-72
2022/12/31 06:12:16;;;;;;;72.50;37.88;;;2.20;99.90;;;;;;5013665;28;20038;-72
2022/12/31 06:14:43;;;;;;;67.65;35.65;;;2.30;99.90;;;;;;5013683;28;20080;-76
2022/12/31 06:17:08;;;;;;;57.88;30.73;;;2.30;99.90;;;;;;5013503;28;20434;-73
2022/12/31 06:19:34;;;;;;;67.70;34.63;;;2.30;99.90;;;;;;5011697;28;20017;-72
2022/12/31 06:21:59;;;;;;;62.70;32.95;;;2.20;99.90;;;;;;5013055;28;20026;-74
2022/12/31 06:24:25;;;;;;;65.05;35.15;;;2.30;99.90;;;;;;5012959;28;20033;-73
2022/12/31 06:26:51;;;;;;;58.28;33.55;;;2.30;99.90;;;;;;5012349;28;20101;-73
2022/12/31 06:29:16;;;;;;;59.42;34.53;;;2.30;99.90;;;;;;5012263;28;20053;-73
2022/12/31 06:31:42;;;;;;;65.43;34.30;;;2.30;99.90;;;;;;5011367;28;20369;-72
2022/12/31 06:34:08;;;;;;;60.72;32.75;;;2.30;99.90;;;;;;5012658;28;20026;-73
2022/12/31 06:36:33;;;;;;;62.22;33.13;;;2.30;99.90;;;;;;5012728;28;20026;-76
2022/12/31 06:39:00;;;;;;;62.85;33.90;;;2.30;99.90;;;;;;5011780;28;20499;-75
2022/12/31 06:41:25;;;;;;;57.25;32.25;;;2.40;99.90;;;;;;5012707;28;20022;-75
2022/12/31 06:43:51;;;;;;;66.82;38.42;;;2.40;99.90;;;;;;5013002;28;20033;-76
2022/12/31 06:46:17;;;;;;;87.80;42.72;;;2.40;99.90;;;;;;5012798;28;20022;-76
2022/12/31 06:48:44;;;;;;;91.43;44.58;;;2.40;99.90;;;;;;5011559;28;20030;-73
2022/12/31 06:51:12;;;;;;;96.75;45.92;;;2.40;99.90;;;;;;5011259;28;20077;-73
2022/12/31 06:53:37;;;;;;;129.15;63.13;;;2.40;99.90;;;;;;5011355;28;20480;-73
2022/12/31 06:56:08;;;;;;;151.85;75.22;;;2.40;99.90;;;;;;5006644;28;20021;-73
2022/12/31 06:58:34;;;;;;;116.15;55.70;;;2.40;99.90;;;;;;5009532;28;20021;-75
2022/12/31 07:01:24;;;;;;;112.35;57.10;;;2.40;99.90;;;;;;5016584;28;20044;-76
2022/12/31 07:03:55;;;;;;;100.53;49.40;;;2.50;99.90;;;;;;5014493;28;20518;-76
2022/12/31 07:06:50;;;;;;;106.90;52.10;;;2.50;99.90;;;;;;5016207;28;20037;-76
2022/12/31 07:09:35;;;;;;;90.13;45.53;;;2.50;99.90;;;;;;5013644;28;20063;-76
2022/12/31 07:12:19;;;;;;;87.55;44.80;;;2.60;99.90;;;;;;5015924;28;20061;-76
2022/12/31 07:14:52;;;;;;;80.47;40.67;;;2.60;99.90;;;;;;5016326;28;20022;-72
2022/12/31 07:17:36;;;;;;;70.85;38.13;;;2.70;99.90;;;;;;5016268;28;20026;-76
2022/12/31 07:20:10;;;;;;;74.65;38.42;;;2.70;99.90;;;;;;5014458;28;20420;-73
2022/12/31 07:22:36;;;;;;;70.80;37.78;;;2.70;99.90;;;;;;5014848;28;20387;-73
2022/12/31 07:25:05;;;;;;;74.63;41.25;;;2.80;99.90;;;;;;5009500;28;20080;-76
2022/12/31 07:27:33;;;;;;;83.47;39.70;;;2.80;99.90;;;;;;5015736;28;20029;-76
2022/12/31 07:30:14;;;;;;;101.13;48.78;;;2.80;99.90;;;;;;5015961;28;20471;-76
2022/12/31 07:33:10;;;;;;;103.68;48.88;;;2.80;99.90;;;;;;5014950;28;20038;-76
2022/12/31 07:35:39;;;;;;;167.63;75.35;;;2.90;99.90;;;;;;5011966;28;20434;-76
2022/12/31 07:38:25;;;;;;;251.30;107.28;;;2.90;99.90;;;;;;5014262;28;20037;-77
2022/12/31 07:41:20;;;;;;;330.90;137.60;;;3.00;99.90;;;;;;5014278;28;20026;-76
2022/12/31 07:43:51;;;;;;;143.88;66.60;;;3.00;99.90;;;;;;5013981;28;20033;-74
2022/12/31 07:46:23;;;;;;;177.25;78.22;;;3.10;99.90;;;;;;5010420;28;20398;-74
2022/12/31 07:48:49;;;;;;;79.15;40.75;;;3.10;99.90;;;;;;5013900;28;20077;-73
2022/12/31 07:51:15;;;;;;;81.82;40.60;;;3.10;99.90;;;;;;5014152;28;20560;-73
2022/12/31 07:53:40;;;;;;;75.38;36.95;;;3.10;99.90;;;;;;5012033;28;20090;-74
2022/12/31 07:56:08;;;;;;;83.30;40.10;;;3.30;99.90;;;;;;5013569;28;20109;-73
2022/12/31 07:58:39;;;;;;;83.60;41.47;;;3.30;99.90;;;;;;5011629;28;20034;-73
2022/12/31 08:01:12;;;;;;;63.33;34.92;;;3.30;99.90;;;;;;5012422;28;20392;-73
2022/12/31 08:04:01;;;;;;;75.75;37.53;;;3.40;99.90;;;;;;5010853;28;20084;-73
2022/12/31 08:06:27;;;;;;;89.28;40.15;;;3.40;99.90;;;;;;5006677;28;20030;-73
2022/12/31 08:09:01;;;;;;;55.38;30.05;;;3.40;99.90;;;;;;5013930;28;20045;-74
2022/12/31 08:11:45;;;;;;;42.65;24.33;;;3.50;99.90;;;;;;5012813;28;20510;-74
2022/12/31 08:14:12;;;;;;;40.65;22.65;;;3.50;99.90;;;;;;5014207;28;20491;-74
2022/12/31 08:16:38;;;;;;;44.03;23.98;;;3.60;99.90;;;;;;5014600;28;20022;-74
2022/12/31 08:19:04;;;;;;;56.38;27.73;;;3.70;99.90;;;;;;5011625;28;20117;-75
2022/12/31 08:21:47;;;;;;;42.55;24.60;;;3.80;99.90;;;;;;5013249;28;20097;-74
2022/12/31 08:24:25;;;;;;;37.80;23.98;;;3.90;99.90;;;;;;5013238;28;20026;-74
2022/12/31 08:27:06;;;;;;;35.40;21.45;;;4.00;99.90;;;;;;5011833;28;20061;-74
2022/12/31 08:29:43;;;;;;;34.90;22.25;;;4.10;99.90;;;;;;5009898;28;20030;-74
2022/12/31 08:32:21;;;;;;;38.67;23.05;;;4.20;99.90;;;;;;5012112;28;20074;-73
2022/12/31 08:34:49;;;;;;;37.08;21.83;;;4.30;99.90;;;;;;5011773;28;20244;-73
2022/12/31 08:37:20;;;;;;;34.35;22.00;;;4.40;99.90;;;;;;5012166;28;20070;-73
2022/12/31 08:40:05;;;;;;;36.53;23.08;;;4.60;99.90;;;;;;5011177;28;20068;-74
2022/12/31 08:42:49;;;;;;;39.60;23.48;;;4.70;99.90;;;;;;5011777;28;20088;-77
2022/12/31 08:45:27;;;;;;;36.38;21.33;;;4.90;99.90;;;;;;5012187;28;20033;-77
2022/12/31 08:48:04;;;;;;;35.72;20.83;;;5.00;99.90;;;;;;5010353;28;20041;-78
2022/12/31 08:50:31;;;;;;;31.88;21.02;;;5.10;99.90;;;;;;5011497;28;20041;-78
2022/12/31 08:52:57;;;;;;;29.88;18.90;;;5.10;99.90;;;;;;5011781;28;20034;-79
2022/12/31 08:55:23;;;;;;;29.48;17.95;;;5.30;99.90;;;;;;5012250;28;20041;-78
2022/12/31 08:57:53;;;;;;;28.40;17.70;;;5.40;99.90;;;;;;5011897;28;20026;-74
2022/12/31 09:00:19;;;;;;;27.33;16.70;;;5.50;99.90;;;;;;5012825;28;20194;-74
2022/12/31 09:03:18;;;;;;;29.27;17.23;;;5.70;99.90;;;;;;5010919;28;20026;-77
2022/12/31 09:05:46;;;;;;;21.88;15.13;;;5.70;99.90;;;;;;5011500;28;20037;-77
2022/12/31 09:08:50;;;;;;;25.25;16.73;;;5.90;99.90;;;;;;5012585;28;20026;-77
2022/12/31 09:11:41;;;;;;;23.90;15.15;;;6.00;99.90;;;;;;5012521;28;20030;-77
2022/12/31 09:14:07;;;;;;;34.53;16.55;;;6.10;99.90;;;;;;5005831;28;20065;-76
2022/12/31 09:16:38;;;;;;;22.23;14.50;;;6.10;99.90;;;;;;5012057;28;20471;-77
2022/12/31 09:19:03;;;;;;;18.05;12.07;;;6.20;99.90;;;;;;5013352;28;20029;-79
2022/12/31 09:21:31;;;;;;;21.08;13.00;;;6.30;99.90;;;;;;5012461;28;20049;-79
2022/12/31 09:23:57;;;;;;;15.40;10.80;;;6.40;99.90;;;;;;5012418;28;20030;-76
2022/12/31 09:26:37;;;;;;;13.90;9.43;;;6.50;99.90;;;;;;5012263;28;20044;-74
2022/12/31 09:29:26;;;;;;;14.43;9.20;;;6.70;99.90;;;;;;5012081;28;20368;-74
2022/12/31 09:32:15;;;;;;;108.38;43.05;;;6.80;99.90;;;;;;5011482;28;20400;-73
2022/12/31 09:34:45;;;;;;;150.02;50.50;;;6.90;99.90;;;;;;5011760;28;20503;-73
2022/12/31 09:37:25;;;;;;;103.60;39.67;;;7.00;99.90;;;;;;5011397;28;20484;-73
2022/12/31 09:39:52;;;;;;;51.28;18.83;;;7.20;99.90;;;;;;5013061;28;20018;-76
2022/12/31 09:43:10;;;;;;;30.40;12.82;;;7.30;99.90;;;;;;5011114;28;20103;-73
2022/12/31 09:46:10;;;;;;;20.73;10.10;;;7.40;99.90;;;;;;5013032;28;20030;-77
2022/12/31 09:49:00;;;;;;;17.05;8.48;;;7.60;99.90;;;;;;5001532;28;20037;-77
2022/12/31 09:51:31;;;;;;;11.00;6.40;;;7.70;99.90;;;;;;5009907;28;20046;-77
2022/12/31 09:54:02;;;;;;;16.60;9.52;;;7.80;99.90;;;;;;5009784;28;20057;-77
2022/12/31 09:56:48;;;;;;;20.33;10.57;;;7.90;99.90;;;;;;5010697;28;20096;-79
2022/12/31 09:59:25;;;;;;;20.55;11.48;;;8.00;99.90;;;;;;5010393;28;20036;-77
2022/12/31 10:02:09;;;;;;;20.15;9.90;;;8.10;99.90;;;;;;5008071;28;20168;-76
2022/12/31 10:05:02;;;;;;;17.98;8.15;;;8.20;99.90;;;;;;5007780;28;20061;-77
2022/12/31 10:07:44;;;;;;;13.68;7.00;;;8.30;99.90;;;;;;5007107;28;20040;-77
2022/12/31 10:10:20;;;;;;;16.27;8.57;;;8.40;99.90;;;;;;5012392;28;20108;-78
2022/12/31 10:13:10;;;;;;;12.23;7.32;;;8.50;99.90;;;;;;5011916;28;20125;-78
2022/12/31 10:15:47;;;;;;;15.70;7.43;;;8.60;99.90;;;;;;5012559;28;20088;-77
2022/12/31 10:18:57;;;;;;;8.40;5.30;;;8.60;99.90;;;;;;5011191;28;20046;-77
2022/12/31 10:21:47;;;;;;;7.47;4.60;;;8.80;99.90;;;;;;4965738;28;20114;-74
2022/12/31 10:24:21;;;;;;;25.25;12.13;;;8.90;99.90;;;;;;4997620;28;20037;-74
2022/12/31 10:27:16;;;;;;;27.55;11.57;;;8.90;99.90;;;;;;5011602;28;20040;-74
2022/12/31 10:30:10;;;;;;;57.08;23.08;;;9.00;99.90;;;;;;5011065;28;20502;-73
2022/12/31 10:32:44;;;;;;;13.70;6.60;;;9.10;99.90;;;;;;5000375;28;20050;-73
2022/12/31 10:35:22;;;;;;;8.60;5.60;;;9.10;99.90;;;;;;5011500;28;20101;-73
2022/12/31 10:38:01;;;;;;;18.25;9.75;;;9.10;99.90;;;;;;5012525;28;20041;-73
2022/12/31 10:40:44;;;;;;;8.63;5.32;;;9.20;99.90;;;;;;5011787;28;20042;-73
2022/12/31 10:43:32;;;;;;;6.95;4.53;;;9.30;99.90;;;;;;5011874;28;20042;-73
2022/12/31 10:46:29;;;;;;;18.98;8.43;;;9.30;99.90;;;;;;5010532;28;20026;-77
2022/12/31 10:49:21;;;;;;;45.08;20.27;;;9.40;99.90;;;;;;5012160;28;20100;-73
2022/12/31 10:51:56;;;;;;;11.90;7.20;;;9.50;99.90;;;;;;5004380;28;20522;-73
2022/12/31 10:54:39;;;;;;;5.38;4.43;;;9.60;99.90;;;;;;5012200;28;20034;-76
2022/12/31 10:57:16;;;;;;;14.25;7.93;;;9.70;99.90;;;;;;5011154;28;20112;-73
2022/12/31 11:00:20;;;;;;;5.93;3.90;;;9.70;99.90;;;;;;5011142;28;20026;-73
2022/12/31 11:03:05;;;;;;;13.55;6.95;;;9.80;99.90;;;;;;4932741;29;20046;-76
2022/12/31 11:05:52;;;;;;;6.65;4.32;;;9.90;99.90;;;;;;4943645;28;20051;-77
2022/12/31 11:08:42;;;;;;;4.68;3.10;;;10.00;99.90;;;;;;4995624;28;20042;-77
2022/12/31 11:11:46;;;;;;;6.40;3.70;;;10.00;99.90;;;;;;5011126;28;20509;-77
2022/12/31 11:14:43;;;;;;;4.70;3.20;;;10.10;99.90;;;;;;5010494;28;20479;-78
2022/12/31 11:17:34;;;;;;;5.53;3.92;;;10.20;99.90;;;;;;5007310;28;20558;-73
2022/12/31 11:20:39;;;;;;;3.78;3.13;;;10.20;99.90;;;;;;5011471;28;20383;-74
2022/12/31 11:23:25;;;;;;;6.47;4.90;;;10.30;99.90;;;;;;5010017;28;20038;-74
2022/12/31 11:26:08;;;;;;;4.68;3.75;;;10.20;99.90;;;;;;5010097;28;20161;-74
2022/12/31 11:29:00;;;;;;;5.35;2.90;;;10.30;99.90;;;;;;5011894;28;20038;-74
2022/12/31 11:31:43;;;;;;;3.33;2.78;;;10.30;99.90;;;;;;5010196;28;20034;-73
2022/12/31 11:34:11;;;;;;;;;;;10.30;99.90;;;;;;5025083;28;20443;-74
2022/12/31 11:36:53;;;;;;;5.88;3.92;;;10.40;99.90;;;;;;5010345;28;19909;-73
2022/12/31 11:39:33;;;;;;;4.10;3.35;;;10.40;99.90;;;;;;5011414;28;20037;-73
2022/12/31 11:41:59;;;;;;;4.15;3.33;;;10.50;99.90;;;;;;5008715;28;20033;-74
2022/12/31 11:44:54;;;;;;;5.38;3.15;;;10.50;99.90;;;;;;5011652;28;20028;-74
2022/12/31 11:47:34;;;;;;;7.57;3.83;;;10.50;99.90;;;;;;5011963;28;20545;-74
2022/12/31 11:50:25;;;;;;;3.75;2.78;;;10.50;99.90;;;;;;5010953;28;20464;-74
2022/12/31 11:53:23;;;;;;;3.03;2.72;;;10.60;99.90;;;;;;5003275;28;20145;-74
2022/12/31 11:56:10;;;;;;;4.22;2.67;;;10.70;99.90;;;;;;5006888;28;20045;-74
2022/12/31 11:58:36;;;;;;;3.58;3.20;;;10.80;99.90;;;;;;5012689;28;20129;-73
2022/12/31 12:01:04;;;;;;;3.33;2.75;;;10.80;99.90;;;;;;5012894;28;20464;-74
2022/12/31 12:03:31;;;;;;;4.03;2.40;;;10.80;99.90;;;;;;5013877;28;20037;-74
2022/12/31 12:05:57;;;;;;;8.27;4.93;;;10.90;99.90;;;;;;5013252;28;20109;-74
2022/12/31 12:08:25;;;;;;;4.60;3.55;;;10.90;99.90;;;;;;5013554;28;20111;-78
2022/12/31 12:11:04;;;;;;;3.45;2.75;;;11.00;99.90;;;;;;5013592;28;20026;-78
2022/12/31 12:13:30;;;;;;;4.55;3.20;;;11.00;99.90;;;;;;5010941;28;20046;-78
2022/12/31 12:16:06;;;;;;;10.85;5.10;;;11.00;99.90;;;;;;5013151;28;20032;-78
2022/12/31 12:18:48;;;;;;;5.50;4.40;;;11.10;99.90;;;;;;5009863;28;20045;-78
2022/12/31 12:21:24;;;;;;;5.88;4.05;;;11.10;99.90;;;;;;5013177;28;20026;-78
2022/12/31 12:24:16;;;;;;;5.95;3.80;;;11.00;99.90;;;;;;5010737;28;20068;-78
2022/12/31 12:26:44;;;;;;;15.48;7.57;;;11.10;99.90;;;;;;5011391;28;20030;-78
2022/12/31 12:29:30;;;;;;;6.53;4.50;;;11.10;99.90;;;;;;5010741;28;20037;-78
2022/12/31 12:31:58;;;;;;;15.27;6.88;;;11.10;99.90;;;;;;5011262;28;20121;-79
2022/12/31 12:34:46;;;;;;;10.77;5.32;;;11.10;99.90;;;;;;5012534;28;20050;-78
2022/12/31 12:37:24;;;;;;;12.35;5.95;;;11.20;99.90;;;;;;5012172;28;20675;-78
2022/12/31 12:40:01;;;;;;;12.50;5.78;;;11.20;99.90;;;;;;5008648;28;20052;-78
2022/12/31 12:42:28;;;;;;;10.80;6.60;;;11.20;99.90;;;;;;5014418;28;20049;-78
2022/12/31 12:45:14;;;;;;;5.65;3.88;;;11.10;99.90;;;;;;5013738;28;20183;-78
2022/12/31 12:47:41;;;;;;;2.92;2.55;;;11.20;99.90;;;;;;5016230;28;20484;-79
2022/12/31 12:50:22;;;;;;;4.43;3.13;;;11.20;99.90;;;;;;5012840;28;20026;-79
2022/12/31 12:53:14;;;;;;;4.03;2.70;;;11.20;99.90;;;;;;5012847;28;20052;-79
2022/12/31 12:56:05;;;;;;;3.58;2.88;;;11.20;99.90;;;;;;5013797;28;20057;-79
2022/12/31 12:58:33;;;;;;;2.75;2.42;;;11.20;99.90;;;;;;5012583;28;20038;-79
2022/12/31 13:01:13;;;;;;;2.88;2.55;;;11.20;99.90;;;;;;5006349;28;20037;-79
2022/12/31 13:03:44;;;;;;;3.88;2.63;;;11.20;99.90;;;;;;5011670;28;20064;-79
2022/12/31 13:06:35;;;;;;;4.75;3.17;;;11.20;99.90;;;;;;5009769;28;20026;-79
2022/12/31 13:09:22;;;;;;;3.53;2.97;;;11.20;99.90;;;;;;5013232;28;20022;-79
2022/12/31 13:12:22;;;;;;;5.30;3.63;;;11.20;99.90;;;;;;5027555;28;20018;-79
2022/12/31 13:15:07;;;;;;;5.38;3.08;;;11.30;99.90;;;;;;5013334;28;20034;-78
2022/12/31 13:18:06;;;;;;;5.05;2.97;;;11.30;99.90;;;;;;5014528;28;20038;-78
2022/12/31 13:20:46;;;;;;;4.05;3.05;;;11.30;99.90;;;;;;5009371;28;20472;-79
2022/12/31 13:23:22;;;;;;;5.00;3.72;;;11.20;99.90;;;;;;5021839;28;20038;-78